createdAt,value
2018-07-15T00:00:32.916Z,6.90
2018-07-15T00:03:02.736Z,7.05
2018-07-15T00:05:31.742Z,6.72
2018-07-15T00:08:01.590Z,6.92
2018-07-15T00:10:31.420Z,7.35
2018-07-15T00:13:01.179Z,7.15
2018-07-15T00:15:30.691Z,6.90
2018-07-15T00:18:00.362Z,7.22
2018-07-15T00:20:29.952Z,7.20
2018-07-15T00:22:58.820Z,6.55
2018-07-15T00:25:28.901Z,6.97
2018-07-15T00:27:59.960Z,6.75
2018-07-15T00:30:28.881Z,6.55
2018-07-15T00:32:58.309Z,7.40
2018-07-15T00:35:27.745Z,7.42
2018-07-15T00:37:57.525Z,7.00
2018-07-15T00:40:27.234Z,6.28
2018-07-15T00:42:57.096Z,7.53
2018-07-15T00:45:26.365Z,6.87
2018-07-15T00:47:55.344Z,7.35
2018-07-15T00:50:24.301Z,6.33
2018-07-15T00:52:53.692Z,7.30
2018-07-15T00:55:23.572Z,7.33
2018-07-15T00:57:53.373Z,6.72
2018-07-15T01:00:27.632Z,6.85
2018-07-15T01:02:56.790Z,7.10
2018-07-15T01:05:26.460Z,6.95
2018-07-15T01:07:56.025Z,7.30
2018-07-15T01:10:25.168Z,7.75
2018-07-15T01:12:53.890Z,6.67
2018-07-15T01:15:23.253Z,7.78
2018-07-15T01:17:52.510Z,7.00
2018-07-15T01:20:21.701Z,8.10
2018-07-15T01:22:52.110Z,6.78
2018-07-15T01:25:21.162Z,7.10
2018-07-15T01:27:50.776Z,7.10
2018-07-15T01:30:20.260Z,7.40
2018-07-15T01:32:49.322Z,7.20
2018-07-15T01:35:18.321Z,7.47
2018-07-15T01:37:47.001Z,7.33
2018-07-15T01:40:16.699Z,7.28
2018-07-15T01:42:45.676Z,7.60
2018-07-15T01:45:15.482Z,8.03
2018-07-15T01:47:44.631Z,7.67
2018-07-15T01:50:13.600Z,7.15
2018-07-15T01:52:42.385Z,7.42
2018-07-15T01:55:11.280Z,7.75
2018-07-15T01:57:40.750Z,7.50
2018-07-15T02:00:11.301Z,7.87
2018-07-15T02:02:40.946Z,7.97
2018-07-15T02:05:09.692Z,8.35
2018-07-15T02:07:39.601Z,7.28
2018-07-15T02:10:09.492Z,7.65
2018-07-15T02:12:39.190Z,7.90
2018-07-15T02:15:09.080Z,8.13
2018-07-15T02:17:38.661Z,8.15
2018-07-15T02:20:08.598Z,7.78
2018-07-15T02:22:37.452Z,8.28
2018-07-15T02:25:07.435Z,7.55
2018-07-15T02:27:36.946Z,8.13
2018-07-15T02:30:07.121Z,7.95
2018-07-15T02:32:36.440Z,8.00
2018-07-15T02:35:05.400Z,8.13
2018-07-15T02:37:35.299Z,8.05
2018-07-15T02:40:04.101Z,7.92
2018-07-15T02:42:32.947Z,7.55
2018-07-15T02:45:01.893Z,7.60
2018-07-15T02:47:32.287Z,7.35
2018-07-15T02:50:01.071Z,8.13
2018-07-15T02:52:29.889Z,8.98
2018-07-15T02:54:59.974Z,8.70
2018-07-15T02:57:28.774Z,8.00
2018-07-15T02:59:57.685Z,8.15
2018-07-15T03:02:27.285Z,7.70
2018-07-15T03:04:56.481Z,8.68
2018-07-15T03:07:25.879Z,8.25
2018-07-15T03:09:54.781Z,8.70
2018-07-15T03:12:25.233Z,8.03
2018-07-15T03:14:54.268Z,8.73
2018-07-15T03:17:23.788Z,9.00
2018-07-15T03:19:53.865Z,8.20
2018-07-15T03:22:22.598Z,9.15
2018-07-15T03:24:51.613Z,8.75
2018-07-15T03:27:20.477Z,8.30
2018-07-15T03:29:49.365Z,8.55
2018-07-15T03:32:19.225Z,8.03
2018-07-15T03:34:48.942Z,9.20
2018-07-15T03:37:18.717Z,8.95
2018-07-15T03:39:48.541Z,8.60
2018-07-15T03:42:17.490Z,8.85
2018-07-15T03:44:46.247Z,9.13
2018-07-15T03:47:15.113Z,8.78
2018-07-15T03:49:44.604Z,9.15
2018-07-15T03:52:13.619Z,8.65
2018-07-15T03:54:42.365Z,9.15
2018-07-15T03:57:11.747Z,9.43
2018-07-15T03:59:40.620Z,9.05
2018-07-15T04:02:09.561Z,8.63
2018-07-15T04:04:39.006Z,9.08
2018-07-15T04:07:09.418Z,8.98
2018-07-15T04:09:38.509Z,8.78
2018-07-15T04:12:08.276Z,8.73
2018-07-15T04:14:37.041Z,8.63
2018-07-15T04:17:07.541Z,8.50
2018-07-15T04:19:36.745Z,8.08
2018-07-15T04:22:06.140Z,8.73
2018-07-15T04:24:35.248Z,8.38
2018-07-15T04:27:03.985Z,8.68
2018-07-15T04:29:33.061Z,7.92
2018-07-15T04:32:02.378Z,7.75
2018-07-15T04:34:31.114Z,7.65
2018-07-15T04:37:00.807Z,7.45
2018-07-15T04:39:30.706Z,7.58
2018-07-15T04:41:59.989Z,6.97
2018-07-15T04:44:29.272Z,7.35
2018-07-15T04:46:59.294Z,6.35
2018-07-15T04:49:29.360Z,7.05
2018-07-15T04:51:58.805Z,6.28
2018-07-15T04:54:28.912Z,6.05
2018-07-15T04:56:58.269Z,5.58
2018-07-15T04:59:27.640Z,5.42
2018-07-15T05:01:57.896Z,5.42
2018-07-15T05:04:27.660Z,4.75
2018-07-15T05:06:57.343Z,5.35
2018-07-15T05:09:27.524Z,6.55
2018-07-15T05:11:57.191Z,7.17
2018-07-15T05:14:26.406Z,7.15
2018-07-15T05:16:55.200Z,6.10
2018-07-15T05:19:24.086Z,7.05
2018-07-15T05:21:52.861Z,6.58
2018-07-15T05:24:23.028Z,6.62
2018-07-15T05:26:52.399Z,7.42
2018-07-15T05:29:21.480Z,7.25
2018-07-15T05:31:51.146Z,6.85
2018-07-15T05:34:20.906Z,7.03
2018-07-15T05:36:50.269Z,6.53
2018-07-15T05:39:19.878Z,6.60
2018-07-15T05:41:49.766Z,6.37
2018-07-15T05:44:19.482Z,7.03
2018-07-15T05:46:49.023Z,6.72
2018-07-15T05:49:18.424Z,6.20
2018-07-15T05:51:47.438Z,5.87
2018-07-15T05:54:17.880Z,6.10
2018-07-15T05:56:46.842Z,6.50
2018-07-15T05:59:16.183Z,6.55
2018-07-15T06:01:45.739Z,5.75
2018-07-15T06:04:16.148Z,5.47
2018-07-15T06:06:45.075Z,4.80
2018-07-15T06:09:13.756Z,4.55
2018-07-15T06:11:43.523Z,4.03
2018-07-15T06:14:13.395Z,3.95
2018-07-15T06:16:42.828Z,4.28
2018-07-15T06:19:12.013Z,4.37
2018-07-15T06:21:41.289Z,3.95
2018-07-15T06:24:11.236Z,4.30
2018-07-15T06:26:40.188Z,4.45
2018-07-15T06:29:08.937Z,4.22
2018-07-15T06:31:37.986Z,4.22
2018-07-15T06:34:07.332Z,4.25
2018-07-15T06:36:37.221Z,4.10
2018-07-15T06:39:07.860Z,4.15
2018-07-15T06:41:38.112Z,4.05
2018-07-15T06:44:07.430Z,4.60
2018-07-15T06:46:39.512Z,3.60
2018-07-15T06:49:08.406Z,3.30
2018-07-15T06:51:38.226Z,3.60
2018-07-15T06:54:08.451Z,3.10
2018-07-15T06:56:38.005Z,2.95
2018-07-15T06:59:06.700Z,3.17
2018-07-15T07:01:35.606Z,3.70
2018-07-15T07:04:04.398Z,3.37
2018-07-15T07:06:33.483Z,3.33
2018-07-15T07:09:02.793Z,3.30
2018-07-15T07:11:31.777Z,3.05
2018-07-15T07:14:01.326Z,3.35
2018-07-15T07:16:31.123Z,3.80
2018-07-15T07:19:00.313Z,2.92
2018-07-15T07:21:29.606Z,3.08
2018-07-15T07:23:59.340Z,3.40
2018-07-15T07:26:28.897Z,2.90
2018-07-15T07:28:58.635Z,2.62
2018-07-15T07:31:27.761Z,3.00
2018-07-15T07:33:56.610Z,2.87
2018-07-15T07:36:25.745Z,3.10
2018-07-15T07:38:54.892Z,3.02
2018-07-15T07:41:23.863Z,2.70
2018-07-15T07:43:54.226Z,3.05
2018-07-15T07:46:23.720Z,2.70
2018-07-15T07:48:52.703Z,2.70
2018-07-15T07:51:21.708Z,2.80
2018-07-15T07:53:51.697Z,2.83
2018-07-15T07:56:20.937Z,2.92
2018-07-15T07:58:51.288Z,3.33
2018-07-15T08:01:21.308Z,3.00
2018-07-15T08:03:51.104Z,3.65
2018-07-15T08:06:20.825Z,2.95
2018-07-15T08:08:50.567Z,3.60
2018-07-15T08:11:19.838Z,3.42
2018-07-15T08:13:48.977Z,3.17
2018-07-15T08:16:18.718Z,3.08
2018-07-15T08:18:48.310Z,2.98
2018-07-15T08:21:17.264Z,2.90
2018-07-15T08:23:46.182Z,3.05
2018-07-15T08:26:16.592Z,3.05
2018-07-15T08:28:45.269Z,3.17
2018-07-15T08:31:16.542Z,2.67
2018-07-15T08:33:45.630Z,3.30
2018-07-15T08:36:14.920Z,2.70
2018-07-15T08:38:45.235Z,2.60
2018-07-15T08:41:15.206Z,2.50
2018-07-15T08:43:44.515Z,2.90
2018-07-15T08:46:13.457Z,2.30
2018-07-15T08:48:42.646Z,2.65
2018-07-15T08:51:11.647Z,2.72
2018-07-15T08:53:40.309Z,2.15
2018-07-15T08:56:09.110Z,2.37
2018-07-15T08:58:39.005Z,2.30
2018-07-15T09:01:09.060Z,2.55
2018-07-15T09:03:38.133Z,2.00
2018-07-15T09:06:07.191Z,2.37
2018-07-15T09:08:37.448Z,2.20
2018-07-15T09:11:07.017Z,2.27
2018-07-15T09:13:35.848Z,2.30
2018-07-15T09:16:04.747Z,2.12
2018-07-15T09:18:33.517Z,2.25
2018-07-15T09:21:02.670Z,2.35
2018-07-15T09:23:31.856Z,2.10
2018-07-15T09:26:02.008Z,2.35
2018-07-15T09:28:31.341Z,2.27
2018-07-15T09:31:01.575Z,2.42
2018-07-15T09:33:31.458Z,2.02
2018-07-15T09:36:01.281Z,2.45
2018-07-15T09:38:30.282Z,2.37
2018-07-15T09:40:59.363Z,2.22
2018-07-15T09:43:29.281Z,2.00
2018-07-15T09:45:59.086Z,2.20
2018-07-15T09:48:28.861Z,2.60
2018-07-15T09:50:58.561Z,2.50
2018-07-15T09:53:27.501Z,2.50
2018-07-15T09:55:57.204Z,2.30
2018-07-15T09:58:27.677Z,2.20
2018-07-15T10:00:57.380Z,2.70
2018-07-15T10:03:28.676Z,2.27
2018-07-15T10:05:57.541Z,2.00
2018-07-15T10:08:26.890Z,2.27
2018-07-15T10:10:56.883Z,2.17
2018-07-15T10:13:26.458Z,3.30
2018-07-15T10:15:55.714Z,2.00
2018-07-15T10:18:24.792Z,1.80
2018-07-15T10:20:54.155Z,2.10
2018-07-15T10:23:23.402Z,1.90
2018-07-15T10:25:53.158Z,1.92
2018-07-15T10:28:22.761Z,1.90
2018-07-15T10:30:51.653Z,2.15
2018-07-15T10:33:21.141Z,2.10
2018-07-15T10:35:50.268Z,2.25
2018-07-15T10:38:19.401Z,2.58
2018-07-15T10:40:50.245Z,1.90
2018-07-15T10:43:19.537Z,2.02
2018-07-15T10:45:49.202Z,3.20
2018-07-15T10:48:18.466Z,1.90
2018-07-15T10:50:49.051Z,2.02
2018-07-15T10:53:19.380Z,2.67
2018-07-15T10:55:48.900Z,2.25
2018-07-15T10:58:18.704Z,2.08
2018-07-15T11:00:48.309Z,2.08
2018-07-15T11:03:17.731Z,1.90
2018-07-15T11:05:47.660Z,2.00
2018-07-15T11:08:17.250Z,2.00
2018-07-15T11:10:46.594Z,1.80
2018-07-15T11:13:15.418Z,1.80
2018-07-15T11:15:44.338Z,1.70
2018-07-15T11:18:13.413Z,1.70
2018-07-15T11:20:42.846Z,2.00
2018-07-15T11:23:12.455Z,2.22
2018-07-15T11:25:41.090Z,1.85
2018-07-15T11:28:09.794Z,2.05
2018-07-15T11:30:40.635Z,2.00
2018-07-15T11:33:10.188Z,2.50
2018-07-15T11:35:38.985Z,2.67
2018-07-15T11:38:08.031Z,2.20
2018-07-15T11:40:38.088Z,2.42
2018-07-15T11:43:07.080Z,2.20
2018-07-15T11:45:37.352Z,2.35
2018-07-15T11:48:06.287Z,2.15
2018-07-15T11:50:35.282Z,2.35
2018-07-15T11:53:04.140Z,2.22
2018-07-15T11:55:33.213Z,2.33
2018-07-15T11:58:03.575Z,2.20
2018-07-15T12:00:33.044Z,2.20
2018-07-15T12:03:02.716Z,1.85
2018-07-15T12:05:32.420Z,1.95
2018-07-15T12:08:01.376Z,2.17
2018-07-15T12:10:30.328Z,1.85
2018-07-15T12:12:59.089Z,2.08
2018-07-15T12:15:27.913Z,1.72
2018-07-15T12:17:57.622Z,2.17
2018-07-15T12:20:26.757Z,1.92
2018-07-15T12:22:55.723Z,2.00
2018-07-15T12:25:24.393Z,1.95
2018-07-15T12:27:53.296Z,1.87
2018-07-15T12:30:22.503Z,1.95
2018-07-15T12:32:51.998Z,1.80
2018-07-15T12:35:21.246Z,2.02
2018-07-15T12:37:50.729Z,2.25
2018-07-15T12:40:19.385Z,2.27
2018-07-15T12:42:48.271Z,2.47
2018-07-15T12:45:17.229Z,1.87
2018-07-15T12:47:46.795Z,2.20
2018-07-15T12:50:15.661Z,2.60
2018-07-15T12:52:45.357Z,2.22
2018-07-15T12:55:14.720Z,2.33
2018-07-15T12:57:44.016Z,2.30
2018-07-15T13:00:14.132Z,2.20
2018-07-15T13:02:42.776Z,2.65
2018-07-15T13:05:11.945Z,2.20
2018-07-15T13:07:50.258Z,2.80
2018-07-15T13:10:19.692Z,2.02
2018-07-15T13:12:49.308Z,2.10
2018-07-15T13:15:19.273Z,2.00
2018-07-15T13:17:49.580Z,2.10
2018-07-15T13:20:19.301Z,2.20
2018-07-15T13:22:48.953Z,1.90
2018-07-15T13:25:18.775Z,2.20
2018-07-15T13:27:47.856Z,1.87
2018-07-15T13:30:17.599Z,1.77
2018-07-15T13:32:48.075Z,1.85
2018-07-15T13:35:17.657Z,1.72
2018-07-15T13:37:47.122Z,1.82
2018-07-15T13:40:17.018Z,2.05
2018-07-15T13:42:46.611Z,1.85
2018-07-15T13:45:15.395Z,1.90
2018-07-15T13:47:45.030Z,1.85
2018-07-15T13:50:14.874Z,1.70
2018-07-15T13:52:44.121Z,1.90
2018-07-15T13:55:13.932Z,1.90
2018-07-15T13:57:43.261Z,1.85
2018-07-15T14:00:12.935Z,1.72
2018-07-15T14:02:42.439Z,1.70
2018-07-15T14:05:11.708Z,1.87
2018-07-15T14:07:41.484Z,2.22
2018-07-15T14:10:10.956Z,1.90
2018-07-15T14:12:40.691Z,1.70
2018-07-15T14:15:09.352Z,1.65
2018-07-15T14:17:38.048Z,2.00
2018-07-15T14:20:09.116Z,1.70
2018-07-15T14:22:38.564Z,1.77
2018-07-15T14:25:07.533Z,1.82
2018-07-15T14:27:36.970Z,1.77
2018-07-15T14:30:07.636Z,1.75
2018-07-15T14:32:37.092Z,2.35
2018-07-15T14:35:08.438Z,2.50
2018-07-15T14:37:37.587Z,2.92
2018-07-15T14:40:07.265Z,2.40
2018-07-15T14:42:36.397Z,2.35
2018-07-15T14:45:05.583Z,1.87
2018-07-15T14:47:35.085Z,1.98
2018-07-15T14:50:04.707Z,2.10
2018-07-15T14:52:33.864Z,1.80
2018-07-15T14:55:03.465Z,1.70
2018-07-15T14:57:33.599Z,2.85
2018-07-15T15:00:03.055Z,2.10
2018-07-15T15:02:31.772Z,1.80
2018-07-15T15:05:02.496Z,1.82
2018-07-15T15:07:31.726Z,2.00
2018-07-15T15:10:02.020Z,1.80
2018-07-15T15:12:31.195Z,1.75
2018-07-15T15:15:03.044Z,1.70
2018-07-15T15:17:31.977Z,2.05
2018-07-15T15:20:01.205Z,1.67
2018-07-15T15:22:30.859Z,1.82
2018-07-15T15:24:59.764Z,1.72
2018-07-15T15:27:30.737Z,1.67
2018-07-15T15:30:00.863Z,2.00
2018-07-15T15:32:30.347Z,1.80
2018-07-15T15:34:59.112Z,1.95
2018-07-15T15:37:28.710Z,1.90
2018-07-15T15:39:58.283Z,1.42
2018-07-15T15:42:27.730Z,1.70
2018-07-15T15:44:57.512Z,1.72
2018-07-15T15:47:27.251Z,1.35
2018-07-15T15:49:56.610Z,1.70
2018-07-15T15:52:25.784Z,1.90
2018-07-15T15:54:55.446Z,1.70
2018-07-15T15:57:24.672Z,1.82
2018-07-15T15:59:54.281Z,1.70
2018-07-15T16:02:22.948Z,1.42
2018-07-15T16:04:52.305Z,1.90
2018-07-15T16:07:21.229Z,1.80
2018-07-15T16:09:50.590Z,1.62
2018-07-15T16:12:19.436Z,1.65
2018-07-15T16:14:48.612Z,1.60
2018-07-15T16:17:17.311Z,1.35
2018-07-15T16:19:46.494Z,1.67
2018-07-15T16:22:16.460Z,1.60
2018-07-15T16:24:45.114Z,1.35
2018-07-15T16:27:14.594Z,1.50
2018-07-15T16:29:43.610Z,1.87
2018-07-15T16:32:13.036Z,1.40
2018-07-15T16:34:42.137Z,1.37
2018-07-15T16:37:10.957Z,1.40
2018-07-15T16:39:42.021Z,1.50
2018-07-15T16:42:11.564Z,1.55
2018-07-15T16:44:41.039Z,1.60
2018-07-15T16:47:10.467Z,1.50
2018-07-15T16:49:39.267Z,1.40
2018-07-15T16:52:08.609Z,1.30
2018-07-15T16:54:37.324Z,1.40
2018-07-15T16:57:06.764Z,1.60
2018-07-15T16:59:35.809Z,1.50
2018-07-15T17:02:05.249Z,1.45
2018-07-15T17:04:34.704Z,1.52
2018-07-15T17:07:03.444Z,1.57
2018-07-15T17:09:32.852Z,1.70
2018-07-15T17:12:01.712Z,1.40
2018-07-15T17:14:31.021Z,1.50
2018-07-15T17:17:00.243Z,1.50
2018-07-15T17:19:29.146Z,1.35
2018-07-15T17:21:58.412Z,1.22
2018-07-15T17:24:27.112Z,1.30
2018-07-15T17:26:55.685Z,1.30
2018-07-15T17:29:25.060Z,1.35
2018-07-15T17:31:54.274Z,1.30
2018-07-15T17:34:22.856Z,1.60
2018-07-15T17:36:51.515Z,1.30
2018-07-15T17:39:20.709Z,1.30
2018-07-15T17:41:49.511Z,1.70
2018-07-15T17:44:18.729Z,1.47
2018-07-15T17:46:47.375Z,1.42
2018-07-15T17:49:16.848Z,1.30
2018-07-15T17:51:45.591Z,1.35
2018-07-15T17:54:15.277Z,1.52
2018-07-15T17:56:44.916Z,1.40
2018-07-15T17:59:14.094Z,1.65
2018-07-15T18:01:42.788Z,1.25
2018-07-15T18:04:11.752Z,1.50
2018-07-15T18:06:40.920Z,1.50
2018-07-15T18:09:09.829Z,1.60
2018-07-15T18:11:39.662Z,1.80
2018-07-15T18:14:08.664Z,1.50
2018-07-15T18:16:37.359Z,1.37
2018-07-15T18:19:06.654Z,1.82
2018-07-15T18:21:35.341Z,1.80
2018-07-15T18:24:04.457Z,1.87
2018-07-15T18:26:33.878Z,1.75
2018-07-15T18:29:03.419Z,1.77
2018-07-15T18:31:32.212Z,2.00
2018-07-15T18:34:01.170Z,1.80
2018-07-15T18:36:30.814Z,1.80
2018-07-15T18:38:59.900Z,1.70
2018-07-15T18:41:29.434Z,1.70
2018-07-15T18:43:59.020Z,1.90
2018-07-15T18:46:28.415Z,1.90
2018-07-15T18:48:57.361Z,1.77
2018-07-15T18:51:26.784Z,2.12
2018-07-15T18:53:55.396Z,1.80
2018-07-15T18:56:24.828Z,1.57
2018-07-15T18:58:54.137Z,2.00
2018-07-15T19:01:23.240Z,1.70
2018-07-15T19:03:52.733Z,1.67
2018-07-15T19:06:21.706Z,1.82
2018-07-15T19:08:51.164Z,1.72
2018-07-15T19:11:20.721Z,2.25
2018-07-15T19:13:49.713Z,1.98
2018-07-15T19:16:19.924Z,2.08
2018-07-15T19:18:49.221Z,1.85
2018-07-15T19:21:18.422Z,1.90
2018-07-15T19:23:47.521Z,2.17
2018-07-15T19:26:17.297Z,2.02
2018-07-15T19:28:47.753Z,2.50
2018-07-15T19:31:17.582Z,2.15
2018-07-15T19:33:47.633Z,2.12
2018-07-15T19:36:16.937Z,2.02
2018-07-15T19:38:45.817Z,2.60
2018-07-15T19:41:15.873Z,1.90
2018-07-15T19:43:45.849Z,2.50
2018-07-15T19:46:14.929Z,2.12
2018-07-15T19:48:43.655Z,2.50
2018-07-15T19:51:12.729Z,2.40
2018-07-15T19:53:41.297Z,2.60
2018-07-15T19:56:09.877Z,2.33
2018-07-15T19:58:38.416Z,2.77
2018-07-15T20:01:07.093Z,2.98
2018-07-15T20:03:35.987Z,2.80
2018-07-15T20:06:04.814Z,2.72
2018-07-15T20:08:33.784Z,2.87
2018-07-15T20:11:03.430Z,2.52
2018-07-15T20:13:33.105Z,2.40
2018-07-15T20:16:03.634Z,2.30
2018-07-15T20:18:33.417Z,2.30
2018-07-15T20:21:02.888Z,2.55
2018-07-15T20:23:31.636Z,2.58
2018-07-15T20:26:01.482Z,2.52
2018-07-15T20:28:31.503Z,2.47
2018-07-15T20:31:01.667Z,2.35
2018-07-15T20:33:30.397Z,2.42
2018-07-15T20:35:59.232Z,2.42
2018-07-15T20:38:28.518Z,2.52
2018-07-15T20:40:58.584Z,2.62
2018-07-15T20:43:27.860Z,2.40
2018-07-15T20:45:57.641Z,2.45
2018-07-15T20:48:27.263Z,2.42
2018-07-15T20:50:56.161Z,2.70
2018-07-15T20:53:26.221Z,2.50
2018-07-15T20:55:56.516Z,2.47
2018-07-15T20:58:25.661Z,2.60
2018-07-15T21:00:57.851Z,2.77
2018-07-15T21:03:26.528Z,2.77
2018-07-15T21:05:55.445Z,2.70
2018-07-15T21:08:25.040Z,2.67
2018-07-15T21:10:54.351Z,2.77
2018-07-15T21:13:23.354Z,2.62
2018-07-15T21:15:52.675Z,2.50
2018-07-15T21:18:21.633Z,2.52
2018-07-15T21:20:51.810Z,2.55
2018-07-15T21:23:21.352Z,2.40
2018-07-15T21:25:51.142Z,2.42
2018-07-15T21:28:20.927Z,2.40
2018-07-15T21:30:49.884Z,2.47
2018-07-15T21:33:18.682Z,2.83
2018-07-15T21:35:47.456Z,3.15
2018-07-15T21:38:17.057Z,3.17
2018-07-15T21:40:46.717Z,2.65
2018-07-15T21:43:15.757Z,2.45
2018-07-15T21:45:45.984Z,3.30
2018-07-15T21:48:15.796Z,2.80
2018-07-15T21:50:45.741Z,2.55
2018-07-15T21:53:15.311Z,2.90
2018-07-15T21:55:45.033Z,2.55
2018-07-15T21:58:14.670Z,2.65
2018-07-15T22:00:43.859Z,2.90
2018-07-15T22:03:13.953Z,2.72
2018-07-15T22:05:43.403Z,2.87
2018-07-15T22:08:25.128Z,2.87
2018-07-15T22:10:54.803Z,3.22
2018-07-15T22:13:23.735Z,3.40
2018-07-15T22:15:53.110Z,2.95
2018-07-15T22:18:22.786Z,3.17
2018-07-15T22:20:51.525Z,3.00
2018-07-15T22:23:21.631Z,2.87
2018-07-15T22:25:50.537Z,2.55
2018-07-15T22:28:19.452Z,2.52
2018-07-15T22:30:49.409Z,3.12
2018-07-15T22:33:19.164Z,2.98
2018-07-15T22:35:48.746Z,3.37
2018-07-15T22:38:17.875Z,4.03
2018-07-15T22:40:47.353Z,3.25
2018-07-15T22:43:16.789Z,3.30
2018-07-15T22:45:45.666Z,3.47
2018-07-15T22:48:15.105Z,3.08
2018-07-15T22:50:45.073Z,3.22
2018-07-15T22:53:14.969Z,3.33
2018-07-15T22:55:44.497Z,3.25
2018-07-15T22:58:13.282Z,3.37
2018-07-15T23:00:42.978Z,3.12
2018-07-15T23:03:13.237Z,3.35
2018-07-15T23:05:57.166Z,3.40
2018-07-15T23:08:27.980Z,3.50
2018-07-15T23:10:57.738Z,3.70
2018-07-15T23:13:27.368Z,3.05
2018-07-15T23:15:56.866Z,3.35
2018-07-15T23:18:26.122Z,3.05
2018-07-15T23:20:55.953Z,2.92
2018-07-15T23:23:24.716Z,3.20
2018-07-15T23:25:53.905Z,3.20
2018-07-15T23:28:22.856Z,3.12
2018-07-15T23:30:51.822Z,2.95
2018-07-15T23:33:21.296Z,2.80
2018-07-15T23:35:51.050Z,3.02
2018-07-15T23:38:20.558Z,3.40
2018-07-15T23:40:49.611Z,3.30
2018-07-15T23:43:19.958Z,3.50
2018-07-15T23:45:48.915Z,3.40
2018-07-15T23:48:17.717Z,3.15
2018-07-15T23:50:47.629Z,3.90
2018-07-15T23:53:17.080Z,3.27
2018-07-15T23:55:46.920Z,3.58
2018-07-15T23:58:15.788Z,2.98
